createdAt,value
2023-05-14T00:00:40.202Z,0.00
2023-05-14T00:01:40.188Z,0.00
2023-05-14T00:02:40.275Z,0.00
2023-05-14T00:03:40.291Z,0.00
2023-05-14T00:04:40.260Z,0.00
2023-05-14T00:05:40.231Z,0.00
2023-05-14T00:06:40.226Z,0.00
2023-05-14T00:07:40.243Z,0.00
2023-05-14T00:08:40.253Z,0.00
2023-05-14T00:09:40.259Z,0.00
2023-05-14T00:10:40.269Z,0.00
2023-05-14T00:11:40.273Z,0.00
2023-05-14T00:12:40.282Z,0.00
2023-05-14T00:13:40.291Z,0.00
2023-05-14T00:14:40.296Z,0.00
2023-05-14T00:15:40.330Z,0.00
2023-05-14T00:16:40.339Z,0.00
2023-05-14T00:17:40.375Z,0.00
2023-05-14T00:18:40.389Z,0.00
2023-05-14T00:19:40.347Z,0.00
2023-05-14T00:20:40.353Z,0.00
2023-05-14T00:21:40.363Z,0.00
2023-05-14T00:22:40.373Z,0.00
2023-05-14T00:23:40.390Z,0.00
2023-05-14T00:24:40.391Z,0.00
2023-05-14T00:25:40.398Z,0.00
2023-05-14T00:26:40.403Z,0.00
2023-05-14T00:27:40.415Z,0.00
2023-05-14T00:28:40.420Z,0.00
2023-05-14T00:29:40.431Z,0.00
2023-05-14T00:30:40.435Z,0.00
2023-05-14T00:31:40.460Z,0.00
2023-05-14T00:32:40.490Z,0.00
2023-05-14T00:33:40.463Z,0.00
2023-05-14T00:34:40.472Z,0.00
2023-05-14T00:35:40.479Z,0.00
2023-05-14T00:36:40.485Z,0.00
2023-05-14T00:37:40.511Z,0.00
2023-05-14T00:38:40.516Z,0.00
2023-05-14T00:39:40.512Z,0.00
2023-05-14T00:40:40.530Z,0.00
2023-05-14T00:41:40.532Z,0.00
2023-05-14T00:42:40.543Z,0.00
2023-05-14T00:43:40.550Z,0.00
2023-05-14T00:44:40.557Z,0.00
2023-05-14T00:45:40.560Z,0.00
2023-05-14T00:46:40.631Z,0.00
2023-05-14T00:47:40.609Z,0.00
2023-05-14T00:48:40.614Z,0.00
2023-05-14T00:49:40.597Z,0.00
2023-05-14T00:50:40.607Z,0.00
2023-05-14T00:51:40.630Z,0.00
2023-05-14T00:52:40.630Z,0.00
2023-05-14T00:53:40.639Z,0.00
2023-05-14T00:54:40.639Z,0.00
2023-05-14T00:55:40.651Z,0.00
2023-05-14T00:56:40.657Z,0.00
2023-05-14T00:57:40.688Z,0.00
2023-05-14T00:58:40.669Z,0.00
2023-05-14T00:59:40.695Z,0.00
2023-05-14T01:00:40.730Z,0.00
2023-05-14T01:01:40.719Z,0.00
2023-05-14T01:02:40.859Z,0.00
2023-05-14T01:03:40.784Z,0.00
2023-05-14T01:04:40.755Z,0.00
2023-05-14T01:05:40.732Z,0.00
2023-05-14T01:06:40.737Z,0.00
2023-05-14T01:07:40.754Z,0.00
2023-05-14T01:08:40.752Z,0.00
2023-05-14T01:09:40.762Z,0.00
2023-05-14T01:10:40.767Z,0.00
2023-05-14T01:11:40.782Z,0.00
2023-05-14T01:12:40.787Z,0.00
2023-05-14T01:13:40.834Z,0.00
2023-05-14T01:14:40.815Z,0.00
2023-05-14T01:15:40.815Z,0.00
2023-05-14T01:16:40.852Z,0.00
2023-05-14T01:17:40.880Z,0.00
2023-05-14T01:18:40.910Z,0.00
2023-05-14T01:19:40.848Z,0.00
2023-05-14T01:20:40.877Z,0.00
2023-05-14T01:21:40.926Z,0.00
2023-05-14T01:22:40.893Z,0.00
2023-05-14T01:23:40.884Z,0.00
2023-05-14T01:24:40.888Z,0.00
2023-05-14T01:25:40.899Z,0.00
2023-05-14T01:26:40.908Z,0.00
2023-05-14T01:27:40.914Z,0.00
2023-05-14T01:28:40.919Z,0.00
2023-05-14T01:29:40.923Z,0.00
2023-05-14T01:30:40.935Z,0.00
2023-05-14T01:31:41.065Z,0.00
2023-05-14T01:32:41.039Z,0.00
2023-05-14T01:33:40.970Z,0.00
2023-05-14T01:34:40.974Z,0.00
2023-05-14T01:35:40.988Z,0.00
2023-05-14T01:36:41.010Z,0.00
2023-05-14T01:37:40.994Z,0.00
2023-05-14T01:38:41.006Z,0.00
2023-05-14T01:39:41.012Z,0.00
2023-05-14T01:40:41.038Z,0.00
2023-05-14T01:41:41.037Z,0.00
2023-05-14T01:42:41.044Z,0.00
2023-05-14T01:43:41.046Z,0.00
2023-05-14T01:44:41.056Z,0.00
2023-05-14T01:45:41.126Z,0.00
2023-05-14T01:46:41.219Z,0.00
2023-05-14T01:47:41.109Z,0.00
2023-05-14T01:48:41.082Z,0.00
2023-05-14T01:49:41.102Z,0.00
2023-05-14T01:50:41.097Z,0.00
2023-05-14T01:51:41.125Z,0.00
2023-05-14T01:52:41.133Z,0.00
2023-05-14T01:53:41.124Z,0.00
2023-05-14T01:54:41.128Z,0.00
2023-05-14T01:55:41.144Z,0.00
2023-05-14T01:56:41.143Z,0.00
2023-05-14T01:57:41.153Z,0.00
2023-05-14T01:58:41.160Z,0.00
2023-05-14T01:59:41.172Z,0.00
2023-05-14T02:00:41.186Z,0.00
2023-05-14T02:01:41.417Z,0.00
2023-05-14T02:02:41.233Z,0.00
2023-05-14T02:03:41.244Z,0.00
2023-05-14T02:04:41.212Z,0.00
2023-05-14T02:05:41.228Z,0.00
2023-05-14T02:06:41.227Z,0.00
2023-05-14T02:07:41.239Z,0.00
2023-05-14T02:08:41.258Z,0.00
2023-05-14T02:09:41.256Z,0.00
2023-05-14T02:10:41.254Z,0.00
2023-05-14T02:11:41.269Z,0.00
2023-05-14T02:12:41.276Z,0.00
2023-05-14T02:13:41.289Z,0.00
2023-05-14T02:14:41.290Z,0.00
2023-05-14T02:15:41.353Z,0.00
2023-05-14T02:16:41.304Z,0.00
2023-05-14T02:17:41.330Z,0.00
2023-05-14T02:18:41.342Z,0.00
2023-05-14T02:19:41.332Z,0.00
2023-05-14T02:20:41.338Z,0.00
2023-05-14T02:21:41.351Z,0.00
2023-05-14T02:22:41.356Z,0.00
2023-05-14T02:23:42.173Z,0.00
2023-05-14T02:24:41.396Z,0.00
2023-05-14T02:25:41.383Z,0.00
2023-05-14T02:26:41.388Z,0.00
2023-05-14T02:27:41.447Z,0.00
2023-05-14T02:28:41.400Z,0.00
2023-05-14T02:29:41.413Z,0.00
2023-05-14T02:30:41.417Z,0.00
2023-05-14T02:31:41.458Z,0.00
2023-05-14T02:32:41.576Z,0.00
2023-05-14T02:33:41.463Z,0.00
2023-05-14T02:34:41.466Z,0.00
2023-05-14T02:35:41.461Z,0.00
2023-05-14T02:36:41.463Z,0.00
2023-05-14T02:37:41.479Z,0.00
2023-05-14T02:38:41.480Z,0.00
2023-05-14T02:39:41.491Z,0.00
2023-05-14T02:40:41.519Z,0.00
2023-05-14T02:41:41.506Z,0.00
2023-05-14T02:42:41.517Z,0.00
2023-05-14T02:43:41.530Z,0.00
2023-05-14T02:44:41.531Z,0.00
2023-05-14T02:45:41.542Z,0.00
2023-05-14T02:46:41.584Z,0.00
2023-05-14T02:47:41.590Z,0.00
2023-05-14T02:48:41.564Z,0.00
2023-05-14T02:49:41.570Z,0.00
2023-05-14T02:50:41.576Z,0.00
2023-05-14T02:51:41.586Z,0.00
2023-05-14T02:52:41.591Z,0.00
2023-05-14T02:53:41.602Z,0.00
2023-05-14T02:54:41.610Z,0.00
2023-05-14T02:55:41.618Z,0.00
2023-05-14T02:56:41.646Z,0.00
2023-05-14T02:57:41.631Z,0.00
2023-05-14T02:58:41.638Z,0.00
2023-05-14T02:59:41.652Z,0.00
2023-05-14T03:00:41.681Z,0.00
2023-05-14T03:01:41.663Z,0.00
2023-05-14T03:02:41.862Z,0.00
2023-05-14T03:03:41.701Z,0.00
2023-05-14T03:04:41.692Z,0.00
2023-05-14T03:05:41.702Z,0.00
2023-05-14T03:06:41.703Z,0.00
2023-05-14T03:07:41.713Z,0.00
2023-05-14T03:08:41.736Z,0.00
2023-05-14T03:09:41.738Z,0.00
2023-05-14T03:10:41.733Z,0.00
2023-05-14T03:11:41.747Z,0.00
2023-05-14T03:12:41.773Z,0.00
2023-05-14T03:13:41.757Z,0.00
2023-05-14T03:14:41.773Z,0.00
2023-05-14T03:15:41.780Z,0.00
2023-05-14T03:16:41.812Z,0.00
2023-05-14T03:17:41.822Z,0.00
2023-05-14T03:18:41.828Z,0.00
2023-05-14T03:19:41.803Z,0.00
2023-05-14T03:20:41.811Z,0.00
2023-05-14T03:21:41.821Z,0.00
2023-05-14T03:22:41.820Z,0.00
2023-05-14T03:23:41.835Z,0.00
2023-05-14T03:24:41.838Z,0.00
2023-05-14T03:25:41.847Z,0.00
2023-05-14T03:26:41.854Z,0.00
2023-05-14T03:27:41.868Z,0.00
2023-05-14T03:28:41.898Z,0.00
2023-05-14T03:29:41.875Z,0.00
2023-05-14T03:30:41.899Z,0.00
2023-05-14T03:31:41.910Z,0.00
2023-05-14T03:32:41.953Z,0.00
2023-05-14T03:33:41.908Z,0.00
2023-05-14T03:34:41.932Z,0.00
2023-05-14T03:35:41.926Z,0.00
2023-05-14T03:36:41.941Z,0.00
2023-05-14T03:37:41.939Z,0.00
2023-05-14T03:38:41.952Z,0.00
2023-05-14T03:39:41.973Z,0.00
2023-05-14T03:40:41.963Z,0.00
2023-05-14T03:41:41.966Z,0.00
2023-05-14T03:42:41.994Z,0.00
2023-05-14T03:43:42.009Z,0.00
2023-05-14T03:44:42.025Z,0.00
2023-05-14T03:45:42.017Z,4.00
2023-05-14T03:46:42.034Z,0.00
2023-05-14T03:47:42.034Z,0.00
2023-05-14T03:48:42.069Z,0.00
2023-05-14T03:49:42.037Z,0.00
2023-05-14T03:50:42.042Z,0.00
2023-05-14T03:51:42.068Z,0.00
2023-05-14T03:52:42.106Z,4.00
2023-05-14T03:53:42.059Z,0.00
2023-05-14T03:54:42.072Z,0.00
2023-05-14T03:55:42.076Z,0.00
2023-05-14T03:56:42.101Z,0.00
2023-05-14T03:57:42.092Z,0.00
2023-05-14T03:58:42.103Z,0.00
2023-05-14T03:59:42.108Z,0.00
2023-05-14T04:00:42.174Z,4.00
2023-05-14T04:01:42.130Z,0.00
2023-05-14T04:02:42.243Z,4.00
2023-05-14T04:03:42.366Z,0.00
2023-05-14T04:04:42.193Z,4.00
2023-05-14T04:05:42.154Z,0.00
2023-05-14T04:06:42.175Z,4.00
2023-05-14T04:07:42.175Z,4.00
2023-05-14T04:08:42.181Z,4.00
2023-05-14T04:09:42.185Z,4.00
2023-05-14T04:10:42.204Z,0.00
2023-05-14T04:11:42.202Z,4.00
2023-05-14T04:12:42.230Z,4.00
2023-05-14T04:13:42.218Z,4.00
2023-05-14T04:14:42.232Z,4.00
2023-05-14T04:15:42.240Z,4.00
2023-05-14T04:16:42.467Z,0.00
2023-05-14T04:17:42.264Z,4.00
2023-05-14T04:18:42.292Z,4.00
2023-05-14T04:19:42.265Z,4.00
2023-05-14T04:20:42.283Z,0.00
2023-05-14T04:21:42.298Z,4.00
2023-05-14T04:22:42.303Z,4.00
2023-05-14T04:23:42.303Z,4.00
2023-05-14T04:24:42.311Z,0.00
2023-05-14T04:25:42.315Z,4.00
2023-05-14T04:26:42.327Z,4.00
2023-05-14T04:27:42.332Z,4.00
2023-05-14T04:28:42.339Z,4.00
2023-05-14T04:29:42.345Z,4.00
2023-05-14T04:30:42.367Z,4.00
2023-05-14T04:31:42.397Z,4.00
2023-05-14T04:32:42.426Z,4.00
2023-05-14T04:33:42.380Z,4.00
2023-05-14T04:34:42.385Z,4.00
2023-05-14T04:35:42.393Z,8.00
2023-05-14T04:36:42.410Z,4.00
2023-05-14T04:37:42.401Z,4.00
2023-05-14T04:38:42.415Z,8.00
2023-05-14T04:39:42.416Z,4.00
2023-05-14T04:40:42.441Z,8.00
2023-05-14T04:41:42.456Z,8.00
2023-05-14T04:42:42.442Z,8.00
2023-05-14T04:43:42.456Z,8.00
2023-05-14T04:44:42.460Z,8.00
2023-05-14T04:45:42.475Z,12.00
2023-05-14T04:46:42.475Z,12.00
2023-05-14T04:47:42.557Z,12.00
2023-05-14T04:48:42.507Z,12.00
2023-05-14T04:49:42.492Z,12.00
2023-05-14T04:50:42.503Z,12.00
2023-05-14T04:51:42.508Z,12.00
2023-05-14T04:52:42.520Z,16.00
2023-05-14T04:53:42.543Z,16.00
2023-05-14T04:54:42.581Z,16.00
2023-05-14T04:55:42.546Z,16.00
2023-05-14T04:56:42.548Z,20.00
2023-05-14T04:57:42.554Z,16.00
2023-05-14T04:58:42.558Z,16.00
2023-05-14T04:59:42.577Z,16.00
2023-05-14T05:00:42.591Z,20.00
2023-05-14T05:01:42.656Z,20.00
2023-05-14T05:02:42.610Z,20.00
2023-05-14T05:03:42.631Z,20.00
2023-05-14T05:04:42.633Z,24.00
2023-05-14T05:05:42.623Z,24.00
2023-05-14T05:06:42.624Z,20.00
2023-05-14T05:07:42.631Z,24.00
2023-05-14T05:08:42.642Z,24.00
2023-05-14T05:09:42.645Z,24.00
2023-05-14T05:10:42.662Z,24.00
2023-05-14T05:11:42.661Z,28.00
2023-05-14T05:12:42.675Z,28.00
2023-05-14T05:13:42.688Z,28.00
2023-05-14T05:14:42.690Z,28.00
2023-05-14T05:15:42.718Z,32.00
2023-05-14T05:16:42.722Z,36.00
2023-05-14T05:17:42.732Z,40.00
2023-05-14T05:18:42.773Z,40.00
2023-05-14T05:19:44.434Z,44.00
2023-05-14T05:20:42.760Z,44.00
2023-05-14T05:21:42.744Z,44.00
2023-05-14T05:22:42.745Z,44.00
2023-05-14T05:23:42.751Z,44.00
2023-05-14T05:24:42.776Z,44.00
2023-05-14T05:25:42.766Z,44.00
2023-05-14T05:26:42.779Z,44.00
2023-05-14T05:27:42.784Z,40.00
2023-05-14T05:28:42.796Z,40.00
2023-05-14T05:29:42.792Z,36.00
2023-05-14T05:30:42.806Z,36.00
2023-05-14T05:31:42.879Z,32.00
2023-05-14T05:32:42.847Z,28.00
2023-05-14T05:33:42.826Z,28.00
2023-05-14T05:34:42.830Z,28.00
2023-05-14T05:35:42.837Z,28.00
2023-05-14T05:36:42.867Z,24.00
2023-05-14T05:37:42.851Z,24.00
2023-05-14T05:38:42.862Z,24.00
2023-05-14T05:39:42.864Z,24.00
2023-05-14T05:40:42.877Z,20.00
2023-05-14T05:41:42.876Z,20.00
2023-05-14T05:42:42.888Z,16.00
2023-05-14T05:43:42.914Z,20.00
2023-05-14T05:44:42.950Z,20.00
2023-05-14T05:45:42.915Z,20.00
2023-05-14T05:46:42.997Z,20.00
2023-05-14T05:47:42.966Z,20.00
2023-05-14T05:48:42.946Z,20.00
2023-05-14T05:49:42.934Z,24.00
2023-05-14T05:50:42.951Z,24.00
2023-05-14T05:51:42.946Z,20.00
2023-05-14T05:52:42.995Z,24.00
2023-05-14T05:53:42.963Z,24.00
2023-05-14T05:54:42.988Z,24.00
2023-05-14T05:55:42.979Z,24.00
2023-05-14T05:56:42.985Z,28.00
2023-05-14T05:57:42.988Z,28.00
2023-05-14T05:58:43.007Z,32.00
2023-05-14T05:59:43.013Z,36.00
2023-05-14T06:00:43.012Z,36.00
2023-05-14T06:01:43.028Z,40.00
2023-05-14T06:02:43.130Z,40.00
2023-05-14T06:03:43.037Z,44.00
2023-05-14T06:04:43.039Z,44.00
2023-05-14T06:05:43.076Z,44.00
2023-05-14T06:06:43.055Z,44.00
2023-05-14T06:07:43.065Z,44.00
2023-05-14T06:08:43.088Z,44.00
2023-05-14T06:09:43.078Z,40.00
2023-05-14T06:10:43.093Z,44.00
2023-05-14T06:11:43.083Z,44.00
2023-05-14T06:12:43.094Z,44.00
2023-05-14T06:13:43.096Z,44.00
2023-05-14T06:14:43.116Z,48.00
2023-05-14T06:15:43.122Z,48.00
2023-05-14T06:16:43.156Z,52.00
2023-05-14T06:17:43.158Z,48.00
2023-05-14T06:18:43.174Z,52.00
2023-05-14T06:19:43.150Z,60.00
2023-05-14T06:20:43.156Z,64.00
2023-05-14T06:21:43.158Z,64.00
2023-05-14T06:22:43.170Z,64.00
2023-05-14T06:23:43.167Z,64.00
2023-05-14T06:24:43.202Z,64.00
2023-05-14T06:25:43.198Z,60.00
2023-05-14T06:26:43.188Z,64.00
2023-05-14T06:27:43.206Z,64.00
2023-05-14T06:28:43.208Z,60.00
2023-05-14T06:29:43.219Z,60.00
2023-05-14T06:30:43.227Z,60.00
2023-05-14T06:31:43.243Z,56.00
2023-05-14T06:32:43.304Z,60.00
2023-05-14T06:33:43.243Z,60.00
2023-05-14T06:34:43.250Z,60.00
2023-05-14T06:35:43.277Z,64.00
2023-05-14T06:36:43.281Z,64.00
2023-05-14T06:37:43.264Z,64.00
2023-05-14T06:38:43.294Z,68.00
2023-05-14T06:39:43.277Z,68.00
2023-05-14T06:40:43.309Z,68.00
2023-05-14T06:41:43.316Z,68.00
2023-05-14T06:42:43.314Z,68.00
2023-05-14T06:43:43.314Z,68.00
2023-05-14T06:44:43.324Z,76.00
2023-05-14T06:45:43.327Z,80.00
2023-05-14T06:46:43.347Z,92.00
2023-05-14T06:47:43.386Z,92.00
2023-05-14T06:48:43.407Z,92.00
2023-05-14T06:49:43.351Z,88.00
2023-05-14T06:50:43.357Z,92.00
2023-05-14T06:51:43.376Z,96.00
2023-05-14T06:52:43.375Z,96.00
2023-05-14T06:53:43.377Z,104.00
2023-05-14T06:54:43.400Z,108.00
2023-05-14T06:55:43.412Z,112.00
2023-05-14T06:56:43.427Z,116.00
2023-05-14T06:57:43.412Z,124.00
2023-05-14T06:58:43.424Z,128.00
2023-05-14T06:59:43.432Z,132.00
2023-05-14T07:00:43.437Z,140.00
2023-05-14T07:01:43.504Z,144.00
2023-05-14T07:02:43.535Z,148.00
2023-05-14T07:03:43.466Z,152.00
2023-05-14T07:04:43.600Z,156.00
2023-05-14T07:05:43.469Z,152.00
2023-05-14T07:06:43.486Z,148.00
2023-05-14T07:07:43.491Z,140.00
2023-05-14T07:08:43.498Z,132.00
2023-05-14T07:09:43.508Z,124.00
2023-05-14T07:10:43.509Z,120.00
2023-05-14T07:11:43.519Z,116.00
2023-05-14T07:12:43.544Z,116.00
2023-05-14T07:13:43.550Z,116.00
2023-05-14T07:14:43.546Z,116.00
2023-05-14T07:15:43.544Z,112.00
2023-05-14T07:16:43.562Z,112.00
2023-05-14T07:17:43.576Z,112.00
2023-05-14T07:18:43.602Z,112.00
2023-05-14T07:19:43.575Z,112.00
2023-05-14T07:20:43.584Z,112.00
2023-05-14T07:21:43.594Z,116.00
2023-05-14T07:22:43.605Z,120.00
2023-05-14T07:23:43.605Z,124.00
2023-05-14T07:24:43.645Z,128.00
2023-05-14T07:25:43.622Z,132.00
2023-05-14T07:26:43.629Z,136.00
2023-05-14T07:27:43.637Z,136.00
2023-05-14T07:28:43.672Z,132.00
2023-05-14T07:29:43.662Z,136.00
2023-05-14T07:30:43.668Z,128.00
2023-05-14T07:31:43.829Z,136.00
2023-05-14T07:32:43.706Z,140.00
2023-05-14T07:33:43.684Z,144.00
2023-05-14T07:34:43.695Z,156.00
2023-05-14T07:35:43.710Z,160.00
2023-05-14T07:36:43.740Z,164.00
2023-05-14T07:37:43.717Z,168.00
2023-05-14T07:38:43.729Z,176.00
2023-05-14T07:39:43.734Z,180.00
2023-05-14T07:40:43.765Z,184.00
2023-05-14T07:41:43.744Z,192.00
2023-05-14T07:42:43.762Z,192.00
2023-05-14T07:43:43.764Z,204.00
2023-05-14T07:44:43.790Z,200.00
2023-05-14T07:45:43.799Z,208.00
2023-05-14T07:46:43.831Z,208.00
2023-05-14T07:47:43.852Z,208.00
2023-05-14T07:48:43.817Z,216.00
2023-05-14T07:49:43.811Z,224.00
2023-05-14T07:50:43.818Z,228.00
2023-05-14T07:51:43.830Z,224.00
2023-05-14T07:52:43.832Z,212.00
2023-05-14T07:53:43.840Z,196.00
2023-05-14T07:54:43.849Z,192.00
2023-05-14T07:55:43.861Z,180.00
2023-05-14T07:56:43.870Z,180.00
2023-05-14T07:57:43.875Z,184.00
2023-05-14T07:58:43.878Z,192.00
2023-05-14T07:59:43.889Z,180.00
2023-05-14T08:00:43.916Z,180.00
2023-05-14T08:01:43.925Z,176.00
2023-05-14T08:02:44.239Z,192.00
2023-05-14T08:03:43.991Z,200.00
2023-05-14T08:04:43.925Z,212.00
2023-05-14T08:05:43.936Z,216.00
2023-05-14T08:06:43.940Z,216.00
2023-05-14T08:07:43.953Z,228.00
2023-05-14T08:08:43.957Z,232.00
2023-05-14T08:09:43.965Z,244.00
2023-05-14T08:10:44.018Z,260.00
2023-05-14T08:11:44.000Z,284.00
2023-05-14T08:12:43.991Z,292.00
2023-05-14T08:13:44.001Z,304.00
2023-05-14T08:14:44.011Z,312.00
2023-05-14T08:15:44.023Z,316.00
2023-05-14T08:16:44.038Z,320.00
2023-05-14T08:17:44.067Z,320.00
2023-05-14T08:18:44.080Z,312.00
2023-05-14T08:19:44.049Z,296.00
2023-05-14T08:20:44.058Z,260.00
2023-05-14T08:21:44.066Z,236.00
2023-05-14T08:22:44.072Z,236.00
2023-05-14T08:23:44.084Z,240.00
2023-05-14T08:24:44.104Z,252.00
2023-05-14T08:25:44.098Z,252.00
2023-05-14T08:26:44.106Z,260.00
2023-05-14T08:27:44.116Z,272.00
2023-05-14T08:28:44.118Z,268.00
2023-05-14T08:29:44.148Z,280.00
2023-05-14T08:30:44.173Z,284.00
2023-05-14T08:31:44.259Z,280.00
2023-05-14T08:32:44.197Z,272.00
2023-05-14T08:33:44.184Z,272.00
2023-05-14T08:34:44.259Z,268.00
2023-05-14T08:35:44.184Z,268.00
2023-05-14T08:36:44.192Z,260.00
2023-05-14T08:37:44.202Z,252.00
2023-05-14T08:38:44.225Z,248.00
2023-05-14T08:39:44.227Z,244.00
2023-05-14T08:40:44.218Z,244.00
2023-05-14T08:41:44.229Z,252.00
2023-05-14T08:42:44.235Z,260.00
2023-05-14T08:43:44.243Z,264.00
2023-05-14T08:44:44.271Z,296.00
2023-05-14T08:45:44.260Z,332.00
2023-05-14T08:46:44.263Z,356.00
2023-05-14T08:47:44.329Z,400.00
2023-05-14T08:48:44.365Z,424.00
2023-05-14T08:49:44.289Z,340.00
2023-05-14T08:50:44.292Z,292.00
2023-05-14T08:51:44.303Z,268.00
2023-05-14T08:52:44.313Z,244.00
2023-05-14T08:53:44.322Z,232.00
2023-05-14T08:54:44.326Z,232.00
2023-05-14T08:55:44.338Z,248.00
2023-05-14T08:56:44.342Z,276.00
2023-05-14T08:57:44.357Z,288.00
2023-05-14T08:58:44.357Z,316.00
2023-05-14T08:59:44.369Z,328.00
2023-05-14T09:00:44.374Z,344.00
2023-05-14T09:01:44.462Z,380.00
2023-05-14T09:02:44.499Z,412.00
2023-05-14T09:03:44.463Z,384.00
2023-05-14T09:04:44.433Z,336.00
2023-05-14T09:05:44.416Z,328.00
2023-05-14T09:06:44.421Z,316.00
2023-05-14T09:07:44.442Z,304.00
2023-05-14T09:08:44.454Z,300.00
2023-05-14T09:09:44.465Z,308.00
2023-05-14T09:10:44.467Z,288.00
2023-05-14T09:11:44.466Z,288.00
2023-05-14T09:12:44.475Z,288.00
2023-05-14T09:13:44.483Z,276.00
2023-05-14T09:14:44.486Z,260.00
2023-05-14T09:15:44.506Z,248.00
2023-05-14T09:16:44.617Z,256.00
2023-05-14T09:17:44.571Z,236.00
2023-05-14T09:18:44.571Z,244.00
2023-05-14T09:19:44.535Z,268.00
2023-05-14T09:20:44.557Z,284.00
2023-05-14T09:21:44.562Z,288.00
2023-05-14T09:22:44.569Z,288.00
2023-05-14T09:23:44.564Z,280.00
2023-05-14T09:24:44.584Z,280.00
2023-05-14T09:25:44.581Z,276.00
2023-05-14T09:26:44.585Z,232.00
2023-05-14T09:27:44.598Z,204.00
2023-05-14T09:28:44.601Z,184.00
2023-05-14T09:29:44.613Z,184.00
2023-05-14T09:30:44.617Z,192.00
2023-05-14T09:31:44.658Z,240.00
2023-05-14T09:32:44.698Z,268.00
2023-05-14T09:33:44.643Z,292.00
2023-05-14T09:34:44.652Z,296.00
2023-05-14T09:35:44.663Z,288.00
2023-05-14T09:36:44.690Z,280.00
2023-05-14T09:37:44.687Z,284.00
2023-05-14T09:38:44.713Z,304.00
2023-05-14T09:39:44.690Z,324.00
2023-05-14T09:40:44.698Z,340.00
2023-05-14T09:41:44.708Z,376.00
2023-05-14T09:42:44.710Z,376.00
2023-05-14T09:43:44.721Z,364.00
2023-05-14T09:44:44.727Z,376.00
2023-05-14T09:45:44.746Z,396.00
2023-05-14T09:46:44.744Z,424.00
2023-05-14T09:47:44.886Z,432.00
2023-05-14T09:48:44.868Z,408.00
2023-05-14T09:49:44.778Z,384.00
2023-05-14T09:50:44.777Z,356.00
2023-05-14T09:51:44.801Z,332.00
2023-05-14T09:52:44.848Z,332.00
2023-05-14T09:53:44.816Z,300.00
2023-05-14T09:54:44.932Z,244.00
2023-05-14T09:55:44.820Z,264.00
2023-05-14T09:56:44.854Z,272.00
2023-05-14T09:57:44.854Z,296.00
2023-05-14T09:58:44.861Z,380.00
2023-05-14T09:59:44.950Z,464.00
2023-05-14T10:00:44.924Z,472.00
2023-05-14T10:01:44.971Z,560.00
2023-05-14T10:02:44.904Z,840.00
2023-05-14T10:03:44.895Z,416.00
2023-05-14T10:04:44.975Z,332.00
2023-05-14T10:05:44.909Z,344.00
2023-05-14T10:06:44.924Z,360.00
2023-05-14T10:07:44.924Z,408.00
2023-05-14T10:08:44.956Z,496.00
2023-05-14T10:09:44.944Z,540.00
2023-05-14T10:10:44.953Z,572.00
2023-05-14T10:11:44.982Z,492.00
2023-05-14T10:12:44.979Z,520.00
2023-05-14T10:13:44.998Z,744.00
2023-05-14T10:14:44.985Z,644.00
2023-05-14T10:15:44.999Z,556.00
2023-05-14T10:16:45.110Z,340.00
2023-05-14T10:17:45.062Z,296.00
2023-05-14T10:18:45.048Z,276.00
2023-05-14T10:19:45.033Z,300.00
2023-05-14T10:20:45.041Z,296.00
2023-05-14T10:21:45.048Z,260.00
2023-05-14T10:22:45.079Z,244.00
2023-05-14T10:23:45.065Z,240.00
2023-05-14T10:24:45.092Z,196.00
2023-05-14T10:25:45.088Z,188.00
2023-05-14T10:26:45.096Z,200.00
2023-05-14T10:27:45.125Z,228.00
2023-05-14T10:28:45.115Z,252.00
2023-05-14T10:29:45.123Z,272.00
2023-05-14T10:30:45.124Z,272.00
2023-05-14T10:31:45.266Z,280.00
2023-05-14T10:32:45.182Z,408.00
2023-05-14T10:33:45.151Z,284.00
2023-05-14T10:34:45.156Z,308.00
2023-05-14T10:35:45.174Z,312.00
2023-05-14T10:36:45.178Z,256.00
2023-05-14T10:37:45.194Z,292.00
2023-05-14T10:38:45.197Z,380.00
2023-05-14T10:39:45.218Z,444.00
2023-05-14T10:40:45.233Z,524.00
2023-05-14T10:41:45.226Z,728.00
2023-05-14T10:42:45.236Z,1288.00
2023-05-14T10:43:45.241Z,904.00
2023-05-14T10:44:45.250Z,604.00
2023-05-14T10:45:45.260Z,760.00
2023-05-14T10:46:45.292Z,900.00
2023-05-14T10:47:45.296Z,988.00
2023-05-14T10:48:45.286Z,1136.00
2023-05-14T10:49:45.327Z,1044.00
2023-05-14T10:50:45.317Z,712.00
2023-05-14T10:51:45.390Z,1236.00
2023-05-14T10:52:45.322Z,1368.00
2023-05-14T10:53:45.330Z,1012.00
2023-05-14T10:54:45.341Z,556.00
2023-05-14T10:55:45.367Z,488.00
2023-05-14T10:56:45.383Z,496.00
2023-05-14T10:57:45.410Z,528.00
2023-05-14T10:58:45.376Z,472.00
2023-05-14T10:59:45.388Z,288.00
2023-05-14T11:00:45.398Z,320.00
2023-05-14T11:01:45.467Z,352.00
2023-05-14T11:02:45.470Z,384.00
2023-05-14T11:03:45.615Z,356.00
2023-05-14T11:04:45.438Z,308.00
2023-05-14T11:05:45.452Z,352.00
2023-05-14T11:06:45.457Z,380.00
2023-05-14T11:07:45.465Z,388.00
2023-05-14T11:08:45.477Z,432.00
2023-05-14T11:09:45.491Z,476.00
2023-05-14T11:10:45.495Z,496.00
2023-05-14T11:11:45.515Z,564.00
2023-05-14T11:12:45.539Z,628.00
2023-05-14T11:13:45.533Z,900.00
2023-05-14T11:14:45.534Z,388.00
2023-05-14T11:15:45.548Z,332.00
2023-05-14T11:16:45.610Z,312.00
2023-05-14T11:17:45.613Z,300.00
2023-05-14T11:18:45.632Z,276.00
2023-05-14T11:19:45.587Z,272.00
2023-05-14T11:20:45.598Z,264.00
2023-05-14T11:21:45.684Z,276.00
2023-05-14T11:22:45.613Z,656.00
2023-05-14T11:23:45.631Z,1192.00
2023-05-14T11:24:45.633Z,1200.00
2023-05-14T11:25:45.699Z,1184.00
2023-05-14T11:26:45.652Z,1176.00
2023-05-14T11:27:45.692Z,1152.00
2023-05-14T11:28:45.698Z,1140.00
2023-05-14T11:29:45.687Z,1132.00
2023-05-14T11:30:45.693Z,1128.00
2023-05-14T11:31:45.793Z,1124.00
2023-05-14T11:32:45.793Z,1128.00
2023-05-14T11:33:45.728Z,1132.00
2023-05-14T11:34:45.731Z,1136.00
2023-05-14T11:35:45.750Z,1148.00
2023-05-14T11:36:45.752Z,1224.00
2023-05-14T11:37:45.766Z,472.00
2023-05-14T11:38:45.777Z,496.00
2023-05-14T11:39:45.791Z,436.00
2023-05-14T11:40:45.793Z,440.00
2023-05-14T11:41:45.824Z,568.00
2023-05-14T11:42:45.868Z,1280.00
2023-05-14T11:43:45.865Z,1272.00
2023-05-14T11:44:45.862Z,1296.00
2023-05-14T11:45:45.870Z,1212.00
2023-05-14T11:46:45.856Z,1176.00
2023-05-14T11:47:45.939Z,1088.00
2023-05-14T11:48:45.885Z,1224.00
2023-05-14T11:49:45.904Z,972.00
2023-05-14T11:50:45.936Z,440.00
2023-05-14T11:51:45.919Z,444.00
2023-05-14T11:52:45.921Z,528.00
2023-05-14T11:53:45.953Z,1040.00
2023-05-14T11:54:45.947Z,496.00
2023-05-14T11:55:45.954Z,408.00
2023-05-14T11:56:45.963Z,376.00
2023-05-14T11:57:46.002Z,388.00
2023-05-14T11:58:45.982Z,324.00
2023-05-14T11:59:45.992Z,312.00
2023-05-14T12:00:46.038Z,312.00
2023-05-14T12:01:46.015Z,364.00
2023-05-14T12:02:46.073Z,376.00
2023-05-14T12:03:46.161Z,356.00
2023-05-14T12:04:46.145Z,384.00
2023-05-14T12:05:46.077Z,356.00
2023-05-14T12:06:46.068Z,348.00
2023-05-14T12:07:46.076Z,376.00
2023-05-14T12:08:46.088Z,428.00
2023-05-14T12:09:46.105Z,464.00
2023-05-14T12:10:46.117Z,556.00
2023-05-14T12:11:46.129Z,1368.00
2023-05-14T12:12:46.129Z,812.00
2023-05-14T12:13:46.141Z,1476.00
2023-05-14T12:14:46.154Z,1476.00
2023-05-14T12:15:46.198Z,1292.00
2023-05-14T12:16:46.429Z,468.00
2023-05-14T12:17:46.221Z,504.00
2023-05-14T12:18:46.205Z,440.00
2023-05-14T12:19:46.204Z,500.00
2023-05-14T12:20:46.232Z,516.00
2023-05-14T12:21:46.230Z,612.00
2023-05-14T12:22:46.260Z,416.00
2023-05-14T12:23:46.257Z,392.00
2023-05-14T12:24:46.264Z,400.00
2023-05-14T12:25:46.269Z,408.00
2023-05-14T12:26:46.295Z,408.00
2023-05-14T12:27:46.300Z,404.00
2023-05-14T12:28:46.323Z,424.00
2023-05-14T12:29:46.319Z,440.00
2023-05-14T12:30:46.339Z,472.00
2023-05-14T12:31:46.431Z,584.00
2023-05-14T12:32:46.478Z,664.00
2023-05-14T12:33:46.361Z,1440.00
2023-05-14T12:34:46.382Z,1432.00
2023-05-14T12:35:46.385Z,1452.00
2023-05-14T12:36:46.405Z,808.00
2023-05-14T12:37:46.421Z,656.00
2023-05-14T12:38:46.418Z,1444.00
2023-05-14T12:39:46.435Z,808.00
2023-05-14T12:40:46.446Z,596.00
2023-05-14T12:41:46.462Z,636.00
2023-05-14T12:42:46.470Z,1332.00
2023-05-14T12:43:46.480Z,912.00
2023-05-14T12:44:46.494Z,552.00
2023-05-14T12:45:46.502Z,1116.00
2023-05-14T12:46:46.583Z,1028.00
2023-05-14T12:47:46.555Z,672.00
2023-05-14T12:48:46.573Z,1044.00
2023-05-14T12:49:46.556Z,1160.00